sensor_id;sensor_type;location;lat;lon;timestamp;temperature;humidity
45409;DHT22;31162;51.076;3.784;2024-01-30T00:01:16;11.90;99.90
45409;DHT22;31162;51.076;3.784;2024-01-30T00:03:42;12.00;99.90
45409;DHT22;31162;51.076;3.784;2024-01-30T00:06:08;12.00;99.90
45409;DHT22;31162;51.076;3.784;2024-01-30T00:08:34;12.00;99.90
45409;DHT22;31162;51.076;3.784;2024-01-30T00:11:00;12.00;99.90
45409;DHT22;31162;51.076;3.784;2024-01-30T00:13:26;11.80;99.90
45409;DHT22;31162;51.076;3.784;2024-01-30T00:15:52;11.80;99.90
45409;DHT22;31162;51.076;3.784;2024-01-30T00:18:18;11.80;99.90
45409;DHT22;31162;51.076;3.784;2024-01-30T00:20:44;11.80;99.90
45409;DHT22;31162;51.076;3.784;2024-01-30T00:23:10;11.80;99.90
45409;DHT22;31162;51.076;3.784;2024-01-30T00:25:35;11.80;99.90
45409;DHT22;31162;51.076;3.784;2024-01-30T00:28:01;11.80;99.90
45409;DHT22;31162;51.076;3.784;2024-01-30T00:30:27;11.80;99.90
45409;DHT22;31162;51.076;3.784;2024-01-30T00:32:53;11.70;99.90
45409;DHT22;31162;51.076;3.784;2024-01-30T00:35:19;11.70;99.90
45409;DHT22;31162;51.076;3.784;2024-01-30T00:37:47;11.70;99.90
45409;DHT22;31162;51.076;3.784;2024-01-30T00:40:13;11.80;99.90
45409;DHT22;31162;51.076;3.784;2024-01-30T00:42:42;11.60;99.90
45409;DHT22;31162;51.076;3.784;2024-01-30T00:45:15;11.50;99.90
45409;DHT22;31162;51.076;3.784;2024-01-30T00:47:41;11.60;99.90
45409;DHT22;31162;51.076;3.784;2024-01-30T00:50:07;11.60;99.90
45409;DHT22;31162;51.076;3.784;2024-01-30T00:52:33;11.70;99.90
45409;DHT22;31162;51.076;3.784;2024-01-30T00:55:02;11.70;99.90
45409;DHT22;31162;51.076;3.784;2024-01-30T00:57:28;11.70;99.90
45409;DHT22;31162;51.076;3.784;2024-01-30T00:59:54;11.80;99.90
45409;DHT22;31162;51.076;3.784;2024-01-30T01:02:20;11.90;99.90
45409;DHT22;31162;51.076;3.784;2024-01-30T01:04:46;11.90;99.90
45409;DHT22;31162;51.076;3.784;2024-01-30T01:07:12;11.90;99.90
45409;DHT22;31162;51.076;3.784;2024-01-30T01:09:37;11.80;99.90
45409;DHT22;31162;51.076;3.784;2024-01-30T01:12:04;11.80;99.90
45409;DHT22;31162;51.076;3.784;2024-01-30T01:14:30;11.80;99.90
45409;DHT22;31162;51.076;3.784;2024-01-30T01:16:55;11.80;99.90
45409;DHT22;31162;51.076;3.784;2024-01-30T01:19:21;11.80;99.90
45409;DHT22;31162;51.076;3.784;2024-01-30T01:21:47;11.80;99.90
45409;DHT22;31162;51.076;3.784;2024-01-30T01:24:13;11.70;99.90
45409;DHT22;31162;51.076;3.784;2024-01-30T01:26:39;11.70;99.90
45409;DHT22;31162;51.076;3.784;2024-01-30T01:29:06;11.60;99.90
45409;DHT22;31162;51.076;3.784;2024-01-30T01:31:41;11.70;99.90
45409;DHT22;31162;51.076;3.784;2024-01-30T01:34:10;11.60;99.90
45409;DHT22;31162;51.076;3.784;2024-01-30T01:36:36;11.60;99.90
45409;DHT22;31162;51.076;3.784;2024-01-30T01:39:02;11.70;99.90
45409;DHT22;31162;51.076;3.784;2024-01-30T01:41:32;11.60;99.90
45409;DHT22;31162;51.076;3.784;2024-01-30T01:43:58;11.70;99.90
45409;DHT22;31162;51.076;3.784;2024-01-30T01:46:26;11.60;99.90
45409;DHT22;31162;51.076;3.784;2024-01-30T01:48:53;11.60;99.90
45409;DHT22;31162;51.076;3.784;2024-01-30T01:51:19;11.60;99.90
45409;DHT22;31162;51.076;3.784;2024-01-30T01:53:46;11.50;99.90
45409;DHT22;31162;51.076;3.784;2024-01-30T01:56:12;11.50;99.90
45409;DHT22;31162;51.076;3.784;2024-01-30T01:58:38;11.60;99.90
45409;DHT22;31162;51.076;3.784;2024-01-30T02:01:04;11.70;99.90
45409;DHT22;31162;51.076;3.784;2024-01-30T02:03:30;11.60;99.90
45409;DHT22;31162;51.076;3.784;2024-01-30T02:05:56;11.70;99.90
45409;DHT22;31162;51.076;3.784;2024-01-30T02:08:23;11.70;99.90
45409;DHT22;31162;51.076;3.784;2024-01-30T02:10:50;11.70;99.90
45409;DHT22;31162;51.076;3.784;2024-01-30T02:13:16;11.60;99.90
45409;DHT22;31162;51.076;3.784;2024-01-30T02:15:41;11.60;99.90
45409;DHT22;31162;51.076;3.784;2024-01-30T02:18:07;11.70;99.90
45409;DHT22;31162;51.076;3.784;2024-01-30T02:20:35;11.80;99.90
45409;DHT22;31162;51.076;3.784;2024-01-30T02:23:01;11.70;99.90
45409;DHT22;31162;51.076;3.784;2024-01-30T02:25:37;11.80;99.90
45409;DHT22;31162;51.076;3.784;2024-01-30T02:28:03;11.80;99.90
45409;DHT22;31162;51.076;3.784;2024-01-30T02:30:29;11.90;99.90
45409;DHT22;31162;51.076;3.784;2024-01-30T02:32:54;11.90;99.90
45409;DHT22;31162;51.076;3.784;2024-01-30T02:35:20;11.80;99.90
45409;DHT22;31162;51.076;3.784;2024-01-30T02:37:46;11.90;99.90
45409;DHT22;31162;51.076;3.784;2024-01-30T02:40:11;11.90;99.90
45409;DHT22;31162;51.076;3.784;2024-01-30T02:42:37;12.00;99.90
45409;DHT22;31162;51.076;3.784;2024-01-30T02:45:03;12.10;99.90
45409;DHT22;31162;51.076;3.784;2024-01-30T02:47:28;12.30;99.90
45409;DHT22;31162;51.076;3.784;2024-01-30T02:49:54;12.20;99.90
45409;DHT22;31162;51.076;3.784;2024-01-30T02:52:20;11.90;99.90
45409;DHT22;31162;51.076;3.784;2024-01-30T02:54:45;12.00;99.90
45409;DHT22;31162;51.076;3.784;2024-01-30T02:57:11;12.00;99.90
45409;DHT22;31162;51.076;3.784;2024-01-30T02:59:36;12.10;99.90
45409;DHT22;31162;51.076;3.784;2024-01-30T03:02:02;12.20;99.90
45409;DHT22;31162;51.076;3.784;2024-01-30T03:04:28;12.10;99.90
45409;DHT22;31162;51.076;3.784;2024-01-30T03:06:55;12.10;99.90
45409;DHT22;31162;51.076;3.784;2024-01-30T03:09:21;12.10;99.90
45409;DHT22;31162;51.076;3.784;2024-01-30T03:11:47;12.10;99.90
45409;DHT22;31162;51.076;3.784;2024-01-30T03:14:12;12.20;99.90
45409;DHT22;31162;51.076;3.784;2024-01-30T03:16:38;12.20;99.90
45409;DHT22;31162;51.076;3.784;2024-01-30T03:19:06;12.10;99.90
45409;DHT22;31162;51.076;3.784;2024-01-30T03:21:33;12.10;99.90
45409;DHT22;31162;51.076;3.784;2024-01-30T03:23:58;12.10;99.90
45409;DHT22;31162;51.076;3.784;2024-01-30T03:26:24;12.00;99.90
45409;DHT22;31162;51.076;3.784;2024-01-30T03:28:50;12.00;99.90
45409;DHT22;31162;51.076;3.784;2024-01-30T03:31:16;12.00;99.90
45409;DHT22;31162;51.076;3.784;2024-01-30T03:33:41;12.10;99.90
45409;DHT22;31162;51.076;3.784;2024-01-30T03:36:08;12.10;99.90
45409;DHT22;31162;51.076;3.784;2024-01-30T03:38:34;12.10;99.90
45409;DHT22;31162;51.076;3.784;2024-01-30T03:41:00;12.10;99.90
45409;DHT22;31162;51.076;3.784;2024-01-30T03:43:26;12.00;99.90
45409;DHT22;31162;51.076;3.784;2024-01-30T03:45:51;12.00;99.90
45409;DHT22;31162;51.076;3.784;2024-01-30T03:48:18;12.00;99.90
45409;DHT22;31162;51.076;3.784;2024-01-30T03:50:44;12.10;99.90
45409;DHT22;31162;51.076;3.784;2024-01-30T03:53:10;12.00;99.90
45409;DHT22;31162;51.076;3.784;2024-01-30T03:55:36;12.00;99.90
45409;DHT22;31162;51.076;3.784;2024-01-30T03:58:01;12.00;99.90
45409;DHT22;31162;51.076;3.784;2024-01-30T04:00:27;11.90;99.90
45409;DHT22;31162;51.076;3.784;2024-01-30T04:02:53;11.80;99.90
45409;DHT22;31162;51.076;3.784;2024-01-30T04:05:19;11.70;99.90
45409;DHT22;31162;51.076;3.784;2024-01-30T04:07:44;11.70;99.90
45409;DHT22;31162;51.076;3.784;2024-01-30T04:10:10;11.70;99.90
45409;DHT22;31162;51.076;3.784;2024-01-30T04:12:36;11.70;99.90
45409;DHT22;31162;51.076;3.784;2024-01-30T04:15:02;11.50;99.90
45409;DHT22;31162;51.076;3.784;2024-01-30T04:17:28;11.40;99.90
45409;DHT22;31162;51.076;3.784;2024-01-30T04:19:54;11.40;99.90
45409;DHT22;31162;51.076;3.784;2024-01-30T04:22:20;11.30;99.90
45409;DHT22;31162;51.076;3.784;2024-01-30T04:24:46;11.30;99.90
45409;DHT22;31162;51.076;3.784;2024-01-30T04:27:11;11.30;99.90
45409;DHT22;31162;51.076;3.784;2024-01-30T04:29:37;11.30;99.90
45409;DHT22;31162;51.076;3.784;2024-01-30T04:32:03;11.30;99.90
45409;DHT22;31162;51.076;3.784;2024-01-30T04:34:29;11.40;99.90
45409;DHT22;31162;51.076;3.784;2024-01-30T04:36:55;11.50;99.90
45409;DHT22;31162;51.076;3.784;2024-01-30T04:39:20;11.50;99.90
45409;DHT22;31162;51.076;3.784;2024-01-30T04:41:46;11.60;99.90
45409;DHT22;31162;51.076;3.784;2024-01-30T04:44:12;11.60;99.90
45409;DHT22;31162;51.076;3.784;2024-01-30T04:46:37;11.70;99.90
45409;DHT22;31162;51.076;3.784;2024-01-30T04:49:03;11.50;99.90
45409;DHT22;31162;51.076;3.784;2024-01-30T04:51:29;11.50;99.90
45409;DHT22;31162;51.076;3.784;2024-01-30T04:53:55;11.60;99.90
45409;DHT22;31162;51.076;3.784;2024-01-30T04:56:21;11.60;99.90
45409;DHT22;31162;51.076;3.784;2024-01-30T04:58:47;11.50;99.90
45409;DHT22;31162;51.076;3.784;2024-01-30T05:01:16;11.30;99.90
45409;DHT22;31162;51.076;3.784;2024-01-30T05:03:42;11.10;99.90
45409;DHT22;31162;51.076;3.784;2024-01-30T05:06:07;11.20;99.90
45409;DHT22;31162;51.076;3.784;2024-01-30T05:08:33;11.30;99.90
45409;DHT22;31162;51.076;3.784;2024-01-30T05:11:02;11.40;99.90
45409;DHT22;31162;51.076;3.784;2024-01-30T05:13:30;11.40;99.90
45409;DHT22;31162;51.076;3.784;2024-01-30T05:15:56;11.40;99.90
45409;DHT22;31162;51.076;3.784;2024-01-30T05:18:21;11.40;99.90
45409;DHT22;31162;51.076;3.784;2024-01-30T05:20:47;11.60;99.90
45409;DHT22;31162;51.076;3.784;2024-01-30T05:23:12;11.60;99.90
45409;DHT22;31162;51.076;3.784;2024-01-30T05:25:38;11.70;99.90
45409;DHT22;31162;51.076;3.784;2024-01-30T05:28:04;11.80;99.90
45409;DHT22;31162;51.076;3.784;2024-01-30T05:30:30;11.80;99.90
45409;DHT22;31162;51.076;3.784;2024-01-30T05:32:55;11.70;99.90
45409;DHT22;31162;51.076;3.784;2024-01-30T05:35:21;11.70;99.90
45409;DHT22;31162;51.076;3.784;2024-01-30T05:37:48;11.80;99.90
45409;DHT22;31162;51.076;3.784;2024-01-30T05:40:15;11.70;99.90
45409;DHT22;31162;51.076;3.784;2024-01-30T05:42:41;11.80;99.90
45409;DHT22;31162;51.076;3.784;2024-01-30T05:45:07;11.90;99.90
45409;DHT22;31162;51.076;3.784;2024-01-30T05:47:34;11.80;99.90
45409;DHT22;31162;51.076;3.784;2024-01-30T05:49:59;11.80;99.90
45409;DHT22;31162;51.076;3.784;2024-01-30T05:52:25;11.70;99.90
45409;DHT22;31162;51.076;3.784;2024-01-30T05:54:51;11.80;99.90
45409;DHT22;31162;51.076;3.784;2024-01-30T05:57:17;11.80;99.90
45409;DHT22;31162;51.076;3.784;2024-01-30T05:59:44;11.80;99.90
45409;DHT22;31162;51.076;3.784;2024-01-30T06:02:13;11.90;99.90
45409;DHT22;31162;51.076;3.784;2024-01-30T06:04:39;11.90;99.90
45409;DHT22;31162;51.076;3.784;2024-01-30T06:07:05;11.90;99.90
45409;DHT22;31162;51.076;3.784;2024-01-30T06:09:31;11.90;99.90
45409;DHT22;31162;51.076;3.784;2024-01-30T06:11:57;12.00;99.90
45409;DHT22;31162;51.076;3.784;2024-01-30T06:14:23;12.00;99.90
45409;DHT22;31162;51.076;3.784;2024-01-30T06:16:49;12.00;99.90
45409;DHT22;31162;51.076;3.784;2024-01-30T06:19:15;12.10;99.90
45409;DHT22;31162;51.076;3.784;2024-01-30T06:21:40;12.10;99.90
45409;DHT22;31162;51.076;3.784;2024-01-30T06:24:06;12.10;99.90
45409;DHT22;31162;51.076;3.784;2024-01-30T06:26:32;12.10;99.90
45409;DHT22;31162;51.076;3.784;2024-01-30T06:28:57;12.00;99.90
45409;DHT22;31162;51.076;3.784;2024-01-30T06:31:23;12.00;99.90
45409;DHT22;31162;51.076;3.784;2024-01-30T06:33:49;12.10;99.90
45409;DHT22;31162;51.076;3.784;2024-01-30T06:36:15;12.10;99.90
45409;DHT22;31162;51.076;3.784;2024-01-30T06:38:41;12.00;99.90
45409;DHT22;31162;51.076;3.784;2024-01-30T06:41:07;12.00;99.90
45409;DHT22;31162;51.076;3.784;2024-01-30T06:43:32;12.00;99.90
45409;DHT22;31162;51.076;3.784;2024-01-30T06:45:58;12.00;99.90
45409;DHT22;31162;51.076;3.784;2024-01-30T06:48:25;12.00;99.90
45409;DHT22;31162;51.076;3.784;2024-01-30T06:50:54;12.00;99.90
45409;DHT22;31162;51.076;3.784;2024-01-30T06:53:20;12.10;99.90
45409;DHT22;31162;51.076;3.784;2024-01-30T06:55:46;12.10;99.90
45409;DHT22;31162;51.076;3.784;2024-01-30T06:58:12;12.20;99.90
45409;DHT22;31162;51.076;3.784;2024-01-30T07:00:37;12.20;99.90
45409;DHT22;31162;51.076;3.784;2024-01-30T07:03:03;12.20;99.90
45409;DHT22;31162;51.076;3.784;2024-01-30T07:05:29;12.20;99.90
45409;DHT22;31162;51.076;3.784;2024-01-30T07:07:55;12.20;99.90
45409;DHT22;31162;51.076;3.784;2024-01-30T07:10:20;12.10;99.90
45409;DHT22;31162;51.076;3.784;2024-01-30T07:12:46;12.20;99.90
45409;DHT22;31162;51.076;3.784;2024-01-30T07:15:12;12.20;99.90
45409;DHT22;31162;51.076;3.784;2024-01-30T07:17:40;12.30;99.90
45409;DHT22;31162;51.076;3.784;2024-01-30T07:20:06;12.30;99.90
45409;DHT22;31162;51.076;3.784;2024-01-30T07:22:33;12.30;99.90
45409;DHT22;31162;51.076;3.784;2024-01-30T07:24:58;12.30;99.90
45409;DHT22;31162;51.076;3.784;2024-01-30T07:27:24;12.30;99.90
45409;DHT22;31162;51.076;3.784;2024-01-30T07:29:50;12.30;99.90
45409;DHT22;31162;51.076;3.784;2024-01-30T07:32:15;12.40;99.90
45409;DHT22;31162;51.076;3.784;2024-01-30T07:34:41;12.30;99.90
45409;DHT22;31162;51.076;3.784;2024-01-30T07:37:07;12.40;99.90
45409;DHT22;31162;51.076;3.784;2024-01-30T07:39:34;12.50;99.90
45409;DHT22;31162;51.076;3.784;2024-01-30T07:42:00;12.30;99.90
45409;DHT22;31162;51.076;3.784;2024-01-30T07:44:25;12.30;99.90
45409;DHT22;31162;51.076;3.784;2024-01-30T07:46:51;12.40;99.90
45409;DHT22;31162;51.076;3.784;2024-01-30T07:49:17;12.40;99.90
45409;DHT22;31162;51.076;3.784;2024-01-30T07:51:42;12.60;99.90
45409;DHT22;31162;51.076;3.784;2024-01-30T07:54:12;12.60;99.90
45409;DHT22;31162;51.076;3.784;2024-01-30T07:56:38;12.40;99.90
45409;DHT22;31162;51.076;3.784;2024-01-30T07:59:04;12.40;99.90
45409;DHT22;31162;51.076;3.784;2024-01-30T08:01:29;12.40;99.90
45409;DHT22;31162;51.076;3.784;2024-01-30T08:03:55;12.50;99.90
45409;DHT22;31162;51.076;3.784;2024-01-30T08:06:20;12.60;99.90
45409;DHT22;31162;51.076;3.784;2024-01-30T08:08:46;12.50;99.90
45409;DHT22;31162;51.076;3.784;2024-01-30T08:11:12;12.50;99.90
45409;DHT22;31162;51.076;3.784;2024-01-30T08:13:38;12.40;99.90
45409;DHT22;31162;51.076;3.784;2024-01-30T08:16:04;12.30;99.90
45409;DHT22;31162;51.076;3.784;2024-01-30T08:18:29;12.40;99.90
45409;DHT22;31162;51.076;3.784;2024-01-30T08:20:55;12.40;99.90
45409;DHT22;31162;51.076;3.784;2024-01-30T08:23:21;12.20;99.90
45409;DHT22;31162;51.076;3.784;2024-01-30T08:25:47;12.20;99.90
45409;DHT22;31162;51.076;3.784;2024-01-30T08:28:12;12.30;99.90
45409;DHT22;31162;51.076;3.784;2024-01-30T08:30:38;12.30;99.90
45409;DHT22;31162;51.076;3.784;2024-01-30T08:33:05;12.20;99.90
45409;DHT22;31162;51.076;3.784;2024-01-30T08:35:31;12.10;99.90
45409;DHT22;31162;51.076;3.784;2024-01-30T08:37:59;12.00;99.90
45409;DHT22;31162;51.076;3.784;2024-01-30T08:40:24;12.10;99.90
45409;DHT22;31162;51.076;3.784;2024-01-30T08:42:50;12.10;99.90
45409;DHT22;31162;51.076;3.784;2024-01-30T08:45:16;12.20;99.90
45409;DHT22;31162;51.076;3.784;2024-01-30T08:47:42;12.10;99.90
45409;DHT22;31162;51.076;3.784;2024-01-30T08:50:08;12.20;99.90
45409;DHT22;31162;51.076;3.784;2024-01-30T08:52:33;12.20;99.90
45409;DHT22;31162;51.076;3.784;2024-01-30T08:55:00;12.20;99.90
45409;DHT22;31162;51.076;3.784;2024-01-30T08:57:25;12.10;99.90
45409;DHT22;31162;51.076;3.784;2024-01-30T08:59:54;12.10;99.90
45409;DHT22;31162;51.076;3.784;2024-01-30T09:02:20;12.20;99.90
45409;DHT22;31162;51.076;3.784;2024-01-30T09:04:46;12.20;99.90
45409;DHT22;31162;51.076;3.784;2024-01-30T09:07:11;12.20;99.90
45409;DHT22;31162;51.076;3.784;2024-01-30T09:09:39;12.30;99.90
45409;DHT22;31162;51.076;3.784;2024-01-30T09:12:06;12.30;99.90
45409;DHT22;31162;51.076;3.784;2024-01-30T09:14:38;12.50;99.90
45409;DHT22;31162;51.076;3.784;2024-01-30T09:17:04;12.60;99.90
45409;DHT22;31162;51.076;3.784;2024-01-30T09:19:30;12.50;99.90
45409;DHT22;31162;51.076;3.784;2024-01-30T09:21:56;12.50;99.90
45409;DHT22;31162;51.076;3.784;2024-01-30T09:24:21;12.40;99.90
45409;DHT22;31162;51.076;3.784;2024-01-30T09:26:47;12.40;99.90
45409;DHT22;31162;51.076;3.784;2024-01-30T09:29:13;12.50;99.90
45409;DHT22;31162;51.076;3.784;2024-01-30T09:31:38;12.60;99.90
45409;DHT22;31162;51.076;3.784;2024-01-30T09:34:04;12.60;99.90
45409;DHT22;31162;51.076;3.784;2024-01-30T09:36:29;12.80;99.90
45409;DHT22;31162;51.076;3.784;2024-01-30T09:38:55;12.80;99.90
45409;DHT22;31162;51.076;3.784;2024-01-30T09:41:24;12.70;99.90
45409;DHT22;31162;51.076;3.784;2024-01-30T09:43:50;12.70;99.90
45409;DHT22;31162;51.076;3.784;2024-01-30T09:46:18;12.80;99.90
45409;DHT22;31162;51.076;3.784;2024-01-30T09:48:46;12.80;99.90
45409;DHT22;31162;51.076;3.784;2024-01-30T09:51:14;12.80;99.90
45409;DHT22;31162;51.076;3.784;2024-01-30T09:53:41;12.70;99.90
45409;DHT22;31162;51.076;3.784;2024-01-30T09:56:07;12.50;99.90
45409;DHT22;31162;51.076;3.784;2024-01-30T09:58:33;12.30;99.90
45409;DHT22;31162;51.076;3.784;2024-01-30T10:00:58;12.20;99.90
45409;DHT22;31162;51.076;3.784;2024-01-30T10:03:24;12.20;99.90
45409;DHT22;31162;51.076;3.784;2024-01-30T10:05:51;12.10;99.90
45409;DHT22;31162;51.076;3.784;2024-01-30T10:08:20;12.00;99.90
45409;DHT22;31162;51.076;3.784;2024-01-30T10:10:49;12.10;99.90
45409;DHT22;31162;51.076;3.784;2024-01-30T10:13:15;12.00;99.90
45409;DHT22;31162;51.076;3.784;2024-01-30T10:15:42;11.80;99.90
45409;DHT22;31162;51.076;3.784;2024-01-30T10:18:10;11.70;99.90
45409;DHT22;31162;51.076;3.784;2024-01-30T10:20:36;11.70;99.90
45409;DHT22;31162;51.076;3.784;2024-01-30T10:23:02;11.70;99.90
45409;DHT22;31162;51.076;3.784;2024-01-30T10:25:28;11.90;99.90
45409;DHT22;31162;51.076;3.784;2024-01-30T10:27:54;11.90;99.90
45409;DHT22;31162;51.076;3.784;2024-01-30T10:30:23;11.90;99.90
45409;DHT22;31162;51.076;3.784;2024-01-30T10:32:48;11.80;99.90
45409;DHT22;31162;51.076;3.784;2024-01-30T10:35:15;12.00;99.90
45409;DHT22;31162;51.076;3.784;2024-01-30T10:37:43;12.40;99.90
45409;DHT22;31162;51.076;3.784;2024-01-30T10:40:13;12.50;99.90
45409;DHT22;31162;51.076;3.784;2024-01-30T10:42:43;12.60;99.90
45409;DHT22;31162;51.076;3.784;2024-01-30T10:45:11;12.80;99.90
45409;DHT22;31162;51.076;3.784;2024-01-30T10:47:49;12.90;99.90
45409;DHT22;31162;51.076;3.784;2024-01-30T10:50:15;12.50;99.90
45409;DHT22;31162;51.076;3.784;2024-01-30T10:52:42;12.30;99.90
45409;DHT22;31162;51.076;3.784;2024-01-30T10:55:10;12.40;99.90
45409;DHT22;31162;51.076;3.784;2024-01-30T10:57:36;12.50;99.90
45409;DHT22;31162;51.076;3.784;2024-01-30T11:00:08;12.60;99.90
45409;DHT22;31162;51.076;3.784;2024-01-30T11:02:43;13.00;99.90
45409;DHT22;31162;51.076;3.784;2024-01-30T11:05:10;13.90;99.90
45409;DHT22;31162;51.076;3.784;2024-01-30T11:07:36;14.50;99.90
45409;DHT22;31162;51.076;3.784;2024-01-30T11:10:04;14.70;99.90
45409;DHT22;31162;51.076;3.784;2024-01-30T11:12:38;14.60;99.90
45409;DHT22;31162;51.076;3.784;2024-01-30T11:20:18;13.40;99.90
45409;DHT22;31162;51.076;3.784;2024-01-30T11:22:46;13.20;99.90
45409;DHT22;31162;51.076;3.784;2024-01-30T11:25:16;13.00;99.90
45409;DHT22;31162;51.076;3.784;2024-01-30T11:27:46;13.10;99.90
45409;DHT22;31162;51.076;3.784;2024-01-30T11:35:37;12.60;99.90
45409;DHT22;31162;51.076;3.784;2024-01-30T11:38:05;12.40;99.90
45409;DHT22;31162;51.076;3.784;2024-01-30T11:40:32;12.40;99.90
45409;DHT22;31162;51.076;3.784;2024-01-30T11:43:00;12.40;99.90
45409;DHT22;31162;51.076;3.784;2024-01-30T11:45:29;12.30;99.90
45409;DHT22;31162;51.076;3.784;2024-01-30T11:47:55;12.30;99.90
45409;DHT22;31162;51.076;3.784;2024-01-30T11:50:21;12.40;99.90
45409;DHT22;31162;51.076;3.784;2024-01-30T11:52:50;12.20;99.90
45409;DHT22;31162;51.076;3.784;2024-01-30T11:55:17;12.20;99.90
45409;DHT22;31162;51.076;3.784;2024-01-30T11:57:43;12.10;99.90
45409;DHT22;31162;51.076;3.784;2024-01-30T12:00:16;12.10;99.90
45409;DHT22;31162;51.076;3.784;2024-01-30T12:02:44;12.00;99.90
45409;DHT22;31162;51.076;3.784;2024-01-30T12:05:09;11.80;99.90
45409;DHT22;31162;51.076;3.784;2024-01-30T12:07:36;11.70;99.90
45409;DHT22;31162;51.076;3.784;2024-01-30T12:10:02;11.70;99.90
45409;DHT22;31162;51.076;3.784;2024-01-30T12:12:29;11.60;99.90
45409;DHT22;31162;51.076;3.784;2024-01-30T12:14:56;11.70;99.90
45409;DHT22;31162;51.076;3.784;2024-01-30T12:17:48;11.60;99.90
45409;DHT22;31162;51.076;3.784;2024-01-30T12:20:17;11.50;99.90
45409;DHT22;31162;51.076;3.784;2024-01-30T12:22:47;11.40;99.90
45409;DHT22;31162;51.076;3.784;2024-01-30T12:25:17;11.40;99.90
45409;DHT22;31162;51.076;3.784;2024-01-30T12:27:45;11.40;99.90
45409;DHT22;31162;51.076;3.784;2024-01-30T12:30:13;11.30;99.90
45409;DHT22;31162;51.076;3.784;2024-01-30T12:32:40;11.30;99.90
45409;DHT22;31162;51.076;3.784;2024-01-30T12:35:15;11.30;99.90
45409;DHT22;31162;51.076;3.784;2024-01-30T12:37:42;11.30;99.90
45409;DHT22;31162;51.076;3.784;2024-01-30T12:40:08;11.30;99.90
45409;DHT22;31162;51.076;3.784;2024-01-30T12:42:35;11.20;99.90
45409;DHT22;31162;51.076;3.784;2024-01-30T12:45:02;11.10;99.90
45409;DHT22;31162;51.076;3.784;2024-01-30T12:47:28;11.10;99.90
45409;DHT22;31162;51.076;3.784;2024-01-30T12:49:54;11.10;99.90
45409;DHT22;31162;51.076;3.784;2024-01-30T12:52:20;11.20;99.90
45409;DHT22;31162;51.076;3.784;2024-01-30T12:54:49;11.40;99.90
45409;DHT22;31162;51.076;3.784;2024-01-30T12:57:15;11.30;99.90
45409;DHT22;31162;51.076;3.784;2024-01-30T12:59:42;11.20;99.90
45409;DHT22;31162;51.076;3.784;2024-01-30T13:02:08;11.10;99.90
45409;DHT22;31162;51.076;3.784;2024-01-30T13:04:34;11.20;99.90
45409;DHT22;31162;51.076;3.784;2024-01-30T13:07:00;11.40;99.90
45409;DHT22;31162;51.076;3.784;2024-01-30T13:09:26;11.50;99.90
45409;DHT22;31162;51.076;3.784;2024-01-30T13:11:52;11.40;99.90
45409;DHT22;31162;51.076;3.784;2024-01-30T13:14:19;11.40;99.90
45409;DHT22;31162;51.076;3.784;2024-01-30T13:16:44;11.40;99.90
45409;DHT22;31162;51.076;3.784;2024-01-30T13:19:10;11.50;99.90
45409;DHT22;31162;51.076;3.784;2024-01-30T13:21:36;11.50;99.90
45409;DHT22;31162;51.076;3.784;2024-01-30T13:24:01;11.50;99.90
45409;DHT22;31162;51.076;3.784;2024-01-30T13:26:27;11.40;99.90
45409;DHT22;31162;51.076;3.784;2024-01-30T13:28:53;11.40;99.90
45409;DHT22;31162;51.076;3.784;2024-01-30T13:31:19;11.40;99.90
45409;DHT22;31162;51.076;3.784;2024-01-30T13:33:45;11.50;99.90
45409;DHT22;31162;51.076;3.784;2024-01-30T13:36:11;11.50;99.90
45409;DHT22;31162;51.076;3.784;2024-01-30T13:38:37;11.60;99.90
45409;DHT22;31162;51.076;3.784;2024-01-30T13:41:04;11.60;99.90
45409;DHT22;31162;51.076;3.784;2024-01-30T13:43:30;11.60;99.90
45409;DHT22;31162;51.076;3.784;2024-01-30T13:45:56;11.50;99.90
45409;DHT22;31162;51.076;3.784;2024-01-30T13:48:21;11.40;99.90
45409;DHT22;31162;51.076;3.784;2024-01-30T13:50:47;11.40;99.90
45409;DHT22;31162;51.076;3.784;2024-01-30T13:53:13;11.40;99.90
45409;DHT22;31162;51.076;3.784;2024-01-30T13:55:39;11.40;99.90
45409;DHT22;31162;51.076;3.784;2024-01-30T13:58:06;11.50;99.90
45409;DHT22;31162;51.076;3.784;2024-01-30T14:00:32;11.60;99.90
45409;DHT22;31162;51.076;3.784;2024-01-30T14:02:59;11.60;99.90
45409;DHT22;31162;51.076;3.784;2024-01-30T14:05:25;11.50;99.90
45409;DHT22;31162;51.076;3.784;2024-01-30T14:07:51;11.40;99.90
45409;DHT22;31162;51.076;3.784;2024-01-30T14:10:17;11.40;99.90
45409;DHT22;31162;51.076;3.784;2024-01-30T14:12:43;11.50;99.90
45409;DHT22;31162;51.076;3.784;2024-01-30T14:15:09;11.50;99.90
45409;DHT22;31162;51.076;3.784;2024-01-30T14:17:35;11.60;99.90
45409;DHT22;31162;51.076;3.784;2024-01-30T14:20:02;11.60;99.90
45409;DHT22;31162;51.076;3.784;2024-01-30T14:22:29;11.60;99.90
45409;DHT22;31162;51.076;3.784;2024-01-30T14:24:55;11.30;99.90
45409;DHT22;31162;51.076;3.784;2024-01-30T14:27:21;11.20;99.90
45409;DHT22;31162;51.076;3.784;2024-01-30T14:29:47;11.20;99.90
45409;DHT22;31162;51.076;3.784;2024-01-30T14:32:13;11.10;99.90
45409;DHT22;31162;51.076;3.784;2024-01-30T14:34:38;11.10;99.90
45409;DHT22;31162;51.076;3.784;2024-01-30T14:37:05;11.10;99.90
45409;DHT22;31162;51.076;3.784;2024-01-30T14:39:30;11.10;99.90
45409;DHT22;31162;51.076;3.784;2024-01-30T14:41:56;11.00;99.90
45409;DHT22;31162;51.076;3.784;2024-01-30T14:44:21;10.90;99.90
45409;DHT22;31162;51.076;3.784;2024-01-30T14:46:48;10.80;99.90
45409;DHT22;31162;51.076;3.784;2024-01-30T14:49:14;10.80;99.90
45409;DHT22;31162;51.076;3.784;2024-01-30T14:51:41;10.80;99.90
45409;DHT22;31162;51.076;3.784;2024-01-30T14:54:06;10.80;99.90
45409;DHT22;31162;51.076;3.784;2024-01-30T14:56:32;10.80;99.90
45409;DHT22;31162;51.076;3.784;2024-01-30T14:58:58;10.90;99.90
45409;DHT22;31162;51.076;3.784;2024-01-30T15:01:24;10.90;99.90
45409;DHT22;31162;51.076;3.784;2024-01-30T15:03:50;10.90;99.90
45409;DHT22;31162;51.076;3.784;2024-01-30T15:06:18;10.90;99.90
45409;DHT22;31162;51.076;3.784;2024-01-30T15:08:44;10.90;99.90
45409;DHT22;31162;51.076;3.784;2024-01-30T15:11:10;10.90;99.90
45409;DHT22;31162;51.076;3.784;2024-01-30T15:13:36;10.80;99.90
45409;DHT22;31162;51.076;3.784;2024-01-30T15:16:02;10.80;99.90
45409;DHT22;31162;51.076;3.784;2024-01-30T15:18:30;10.60;99.90
45409;DHT22;31162;51.076;3.784;2024-01-30T15:20:56;10.50;99.90
45409;DHT22;31162;51.076;3.784;2024-01-30T15:23:22;10.50;99.90
45409;DHT22;31162;51.076;3.784;2024-01-30T15:25:48;10.50;99.90
45409;DHT22;31162;51.076;3.784;2024-01-30T15:28:13;10.60;99.90
45409;DHT22;31162;51.076;3.784;2024-01-30T15:30:40;10.60;99.90
45409;DHT22;31162;51.076;3.784;2024-01-30T15:33:11;10.80;99.90
45409;DHT22;31162;51.076;3.784;2024-01-30T15:35:37;10.70;99.90